createdAt,value
2022-10-13T00:01:27.704Z,13.98
2022-10-13T00:03:56.314Z,14.13
2022-10-13T00:06:26.556Z,16.45
2022-10-13T00:08:56.759Z,15.35
2022-10-13T00:11:27.337Z,14.18
2022-10-13T00:13:58.490Z,14.23
2022-10-13T00:16:29.037Z,14.43
2022-10-13T00:18:57.506Z,14.77
2022-10-13T00:21:27.596Z,13.32
2022-10-13T00:23:57.769Z,13.63
2022-10-13T00:26:27.788Z,13.68
2022-10-13T00:28:56.581Z,13.25
2022-10-13T00:31:27.196Z,14.63
2022-10-13T00:33:55.994Z,12.27
2022-10-13T00:36:24.887Z,13.68
2022-10-13T00:38:53.904Z,13.25
2022-10-13T00:41:23.487Z,13.05
2022-10-13T00:44:01.195Z,12.43
2022-10-13T00:46:31.823Z,12.68
2022-10-13T00:49:03.583Z,13.13
2022-10-13T00:51:35.721Z,12.40
2022-10-13T00:54:07.413Z,13.55
2022-10-13T00:56:40.089Z,12.85
2022-10-13T00:59:23.291Z,14.05
2022-10-13T01:01:51.840Z,13.57
2022-10-13T01:04:23.015Z,14.20
2022-10-13T01:06:52.300Z,12.60
2022-10-13T01:09:20.331Z,14.18
2022-10-13T01:12:00.734Z,13.05
2022-10-13T01:14:35.693Z,13.60
2022-10-13T01:17:13.409Z,13.18
2022-10-13T01:20:10.882Z,13.70
2022-10-13T01:22:58.113Z,12.43
2022-10-13T01:25:45.909Z,13.77
2022-10-13T01:28:50.645Z,14.77
2022-10-13T01:31:27.827Z,13.05
2022-10-13T01:34:06.027Z,13.48
2022-10-13T01:36:45.378Z,13.13
2022-10-13T01:39:24.391Z,14.30
2022-10-13T01:41:57.480Z,13.70
2022-10-13T01:44:32.323Z,14.45
2022-10-13T01:47:04.449Z,14.90
2022-10-13T01:49:37.161Z,14.48
2022-10-13T01:52:10.136Z,14.95
2022-10-13T01:54:38.465Z,13.60
2022-10-13T01:57:26.938Z,12.85
2022-10-13T01:59:55.677Z,13.27
2022-10-13T02:02:33.601Z,13.82
2022-10-13T02:05:10.526Z,13.50
2022-10-13T02:07:45.862Z,12.32
2022-10-13T02:10:21.453Z,13.45
2022-10-13T02:12:54.899Z,13.52
2022-10-13T02:15:27.285Z,13.68
2022-10-13T02:17:57.429Z,12.98
2022-10-13T02:20:25.616Z,14.45
2022-10-13T02:23:02.601Z,11.88
2022-10-13T02:25:32.095Z,12.57
2022-10-13T02:28:01.986Z,12.07
2022-10-13T02:30:32.122Z,12.65
2022-10-13T02:33:02.069Z,12.13
2022-10-13T02:35:31.166Z,12.57
2022-10-13T02:37:59.872Z,13.82
2022-10-13T02:40:28.419Z,12.75
2022-10-13T02:42:56.914Z,12.93
2022-10-13T02:45:25.370Z,12.68
2022-10-13T02:47:54.321Z,14.43
2022-10-13T02:50:24.336Z,12.80
2022-10-13T02:52:52.999Z,11.68
2022-10-13T02:55:21.482Z,12.93
2022-10-13T02:57:49.705Z,12.95
2022-10-13T03:00:18.277Z,12.35
2022-10-13T03:02:46.871Z,12.18
2022-10-13T03:05:15.209Z,12.70
2022-10-13T03:07:44.771Z,12.73
2022-10-13T03:10:13.101Z,13.40
2022-10-13T03:12:41.424Z,14.05
2022-10-13T03:15:10.640Z,12.48
2022-10-13T03:17:38.811Z,13.18
2022-10-13T03:20:08.524Z,13.10
2022-10-13T03:22:36.834Z,14.27
2022-10-13T03:25:08.027Z,13.63
2022-10-13T03:27:36.601Z,13.27
2022-10-13T03:30:06.202Z,12.68
2022-10-13T03:32:35.542Z,15.60
2022-10-13T03:35:03.844Z,15.30
2022-10-13T03:37:32.643Z,15.10
2022-10-13T03:40:01.502Z,13.85
2022-10-13T03:42:31.548Z,12.13
2022-10-13T03:44:59.721Z,13.75
2022-10-13T03:47:28.482Z,13.57
2022-10-13T03:49:57.613Z,13.70
2022-10-13T03:52:26.154Z,15.10
2022-10-13T03:54:54.493Z,13.75
2022-10-13T03:57:22.925Z,13.13
2022-10-13T03:59:52.528Z,14.30
2022-10-13T04:02:21.074Z,15.18
2022-10-13T04:04:49.817Z,11.55
2022-10-13T04:07:18.254Z,14.68
2022-10-13T04:09:48.171Z,12.60
2022-10-13T04:12:20.622Z,15.23
2022-10-13T04:14:49.647Z,14.75
2022-10-13T04:17:19.363Z,13.82
2022-10-13T04:19:47.866Z,14.88
2022-10-13T04:22:15.970Z,13.60
2022-10-13T04:24:44.655Z,13.52
2022-10-13T04:27:12.882Z,12.30
2022-10-13T04:29:41.510Z,13.15
2022-10-13T04:32:09.933Z,12.70
2022-10-13T04:34:40.353Z,13.80
2022-10-13T04:37:08.777Z,13.88
2022-10-13T04:39:37.286Z,14.68
2022-10-13T04:42:05.836Z,14.65
2022-10-13T04:44:34.292Z,13.70
2022-10-13T04:47:02.719Z,15.32
2022-10-13T04:49:31.159Z,14.93
2022-10-13T04:52:01.219Z,14.15
2022-10-13T04:54:29.747Z,13.68
2022-10-13T04:56:59.357Z,14.60
2022-10-13T04:59:28.504Z,14.25
2022-10-13T05:01:57.267Z,14.60
2022-10-13T05:04:25.498Z,14.45
2022-10-13T05:07:16.453Z,14.38
2022-10-13T05:09:43.876Z,15.07
2022-10-13T05:12:12.300Z,14.80
2022-10-13T05:14:40.877Z,14.82
2022-10-13T05:17:09.553Z,15.30
2022-10-13T05:19:38.585Z,14.35
2022-10-13T05:22:07.649Z,15.68
2022-10-13T05:24:38.149Z,13.55
2022-10-13T05:27:13.068Z,13.15
2022-10-13T05:29:42.484Z,14.65
2022-10-13T05:32:10.935Z,13.73
2022-10-13T05:34:39.613Z,14.95
2022-10-13T05:37:08.001Z,14.77
2022-10-13T05:39:37.115Z,14.10
2022-10-13T05:42:05.789Z,14.13
2022-10-13T05:44:36.614Z,13.13
2022-10-13T05:47:07.661Z,13.68
2022-10-13T05:49:39.995Z,14.02
2022-10-13T05:52:13.022Z,14.70
2022-10-13T05:54:44.192Z,13.27
2022-10-13T05:57:17.640Z,14.05
2022-10-13T05:59:52.412Z,13.55
2022-10-13T06:02:24.298Z,14.57
2022-10-13T06:04:55.937Z,14.50
2022-10-13T06:07:24.422Z,13.85
2022-10-13T06:09:52.814Z,13.32
2022-10-13T06:12:28.555Z,13.82
2022-10-13T06:14:58.489Z,13.55
2022-10-13T06:17:26.963Z,13.35
2022-10-13T06:19:55.137Z,12.23
2022-10-13T06:22:23.524Z,14.27
2022-10-13T06:24:51.680Z,12.25
2022-10-13T06:27:19.956Z,14.07
2022-10-13T06:29:48.265Z,12.98
2022-10-13T06:32:18.625Z,13.38
2022-10-13T06:34:47.693Z,13.68
2022-10-13T06:37:15.979Z,12.27
2022-10-13T06:39:44.359Z,12.85
2022-10-13T06:42:12.483Z,11.77
2022-10-13T06:44:40.820Z,12.60
2022-10-13T06:47:09.362Z,12.70
2022-10-13T06:49:39.102Z,12.43
2022-10-13T06:52:07.565Z,12.45
2022-10-13T06:54:36.282Z,11.73
2022-10-13T06:57:07.547Z,12.43
2022-10-13T06:59:39.465Z,11.77
2022-10-13T07:02:07.941Z,11.80
2022-10-13T07:04:36.220Z,12.50
2022-10-13T07:07:05.748Z,12.50
2022-10-13T07:09:33.949Z,12.60
2022-10-13T07:12:02.141Z,11.63
2022-10-13T07:14:30.397Z,12.07
2022-10-13T07:16:58.505Z,12.23
2022-10-13T07:19:26.725Z,11.05
2022-10-13T07:21:55.120Z,10.73
2022-10-13T07:24:25.084Z,10.40
2022-10-13T07:26:53.877Z,11.45
2022-10-13T07:29:22.942Z,12.13
2022-10-13T07:31:51.426Z,10.75
2022-10-13T07:34:19.624Z,12.43
2022-10-13T07:36:48.130Z,12.18
2022-10-13T07:39:16.372Z,10.05
2022-10-13T07:41:50.758Z,11.60
2022-10-13T07:44:20.049Z,10.88
2022-10-13T07:46:48.077Z,11.35
2022-10-13T07:49:16.817Z,11.27
2022-10-13T07:51:45.540Z,11.25
2022-10-13T07:54:13.761Z,10.23
2022-10-13T07:56:42.213Z,10.98
2022-10-13T07:59:11.883Z,11.80
2022-10-13T08:01:41.776Z,10.52
2022-10-13T08:04:09.884Z,10.95
2022-10-13T08:06:38.216Z,10.35
2022-10-13T08:09:06.488Z,10.70
2022-10-13T08:11:34.750Z,11.23
2022-10-13T08:14:03.608Z,10.52
2022-10-13T08:16:34.304Z,9.50
2022-10-13T08:19:02.486Z,9.65
2022-10-13T08:24:19.636Z,9.50
2022-10-13T08:26:48.290Z,8.98
2022-10-13T08:29:22.932Z,9.57
2022-10-13T08:31:54.361Z,9.18
2022-10-13T08:34:23.269Z,9.38
2022-10-13T08:36:53.488Z,9.07
2022-10-13T08:39:23.006Z,9.23
2022-10-13T08:41:51.748Z,9.05
2022-10-13T08:45:02.578Z,9.18
2022-10-13T08:47:22.025Z,8.63
2022-10-13T08:49:50.550Z,9.30
2022-10-13T08:52:23.699Z,8.57
2022-10-13T08:54:54.501Z,9.02
2022-10-13T08:57:24.026Z,8.63
2022-10-13T08:59:54.139Z,8.70
2022-10-13T09:02:30.708Z,8.60
2022-10-13T09:05:03.874Z,7.53
2022-10-13T09:07:38.402Z,8.07
2022-10-13T09:10:21.899Z,8.18
2022-10-13T09:12:51.738Z,9.67
2022-10-13T09:15:20.917Z,9.05
2022-10-13T09:18:10.560Z,8.57
2022-10-13T09:20:39.352Z,9.10
2022-10-13T09:23:16.998Z,8.85
2022-10-13T09:25:50.204Z,8.32
2022-10-13T09:28:25.339Z,8.38
2022-10-13T09:31:04.553Z,9.20
2022-10-13T09:33:39.254Z,8.68
2022-10-13T09:36:12.579Z,8.15
2022-10-13T09:38:42.769Z,8.32
2022-10-13T09:41:17.747Z,7.82
2022-10-13T09:44:00.842Z,8.63
2022-10-13T09:46:33.739Z,8.95
2022-10-13T09:49:06.221Z,8.50
2022-10-13T09:51:39.316Z,8.85
2022-10-13T09:54:25.200Z,8.40
2022-10-13T09:56:57.373Z,8.80
2022-10-13T09:59:33.412Z,9.35
2022-10-13T10:02:05.667Z,8.93
2022-10-13T10:04:42.068Z,8.48
2022-10-13T10:07:13.683Z,8.90
2022-10-13T10:09:48.304Z,8.82
2022-10-13T10:12:28.786Z,8.48
2022-10-13T10:14:57.581Z,9.52
2022-10-13T10:17:34.845Z,10.45
2022-10-13T10:20:22.365Z,10.68
2022-10-13T10:23:00.385Z,8.60
2022-10-13T10:25:36.526Z,9.65
2022-10-13T10:28:20.330Z,10.68
2022-10-13T10:30:54.215Z,9.13
2022-10-13T10:33:27.415Z,8.30
2022-10-13T10:36:06.488Z,8.87
2022-10-13T10:38:45.167Z,10.98
2022-10-13T10:41:25.829Z,9.70
2022-10-13T10:43:58.062Z,8.82
2022-10-13T10:46:29.521Z,8.45
2022-10-13T10:49:01.870Z,10.95
2022-10-13T10:51:34.172Z,8.20
2022-10-13T10:54:14.375Z,10.52
2022-10-13T10:56:48.977Z,8.77
2022-10-13T10:59:29.687Z,8.68
2022-10-13T11:02:12.188Z,8.65
2022-10-13T11:04:43.490Z,8.15
2022-10-13T11:07:35.189Z,7.88
2022-10-13T11:10:19.405Z,7.60
2022-10-13T11:13:10.908Z,7.13
2022-10-13T11:15:47.785Z,7.82
2022-10-13T11:19:08.114Z,7.82
2022-10-13T11:22:16.863Z,8.73
2022-10-13T11:24:54.490Z,7.63
2022-10-13T11:27:42.285Z,8.85
2022-10-13T11:30:50.758Z,8.75
2022-10-13T11:33:53.555Z,6.68
2022-10-13T11:36:51.047Z,7.68
2022-10-13T11:39:51.013Z,7.85
2022-10-13T11:42:35.889Z,6.93
2022-10-13T11:45:15.013Z,7.05
2022-10-13T11:48:02.861Z,7.38
2022-10-13T11:50:44.341Z,7.35
2022-10-13T11:53:18.857Z,7.55
2022-10-13T11:55:54.257Z,6.47
2022-10-13T11:58:24.694Z,6.65
2022-10-13T12:00:58.433Z,6.97
2022-10-13T12:03:31.908Z,8.15
2022-10-13T12:06:04.482Z,7.47
2022-10-13T12:08:35.728Z,6.75
2022-10-13T12:11:10.186Z,7.28
2022-10-13T12:13:39.403Z,6.82
2022-10-13T12:16:09.366Z,8.43
2022-10-13T12:18:39.600Z,8.05
2022-10-13T12:21:14.534Z,8.30
2022-10-13T12:23:43.241Z,8.10
2022-10-13T12:26:20.928Z,8.82
2022-10-13T12:28:53.359Z,7.70
2022-10-13T12:31:24.785Z,7.90
2022-10-13T12:33:54.982Z,7.82
2022-10-13T12:36:30.051Z,8.10
2022-10-13T12:39:03.295Z,8.52
2022-10-13T12:41:35.574Z,7.82
2022-10-13T12:44:06.920Z,7.47
2022-10-13T12:46:40.365Z,6.97
2022-10-13T12:49:14.590Z,8.40
2022-10-13T12:51:47.020Z,8.10
2022-10-13T12:54:24.799Z,8.35
2022-10-13T12:56:59.128Z,7.80
2022-10-13T12:59:29.666Z,8.98
2022-10-13T13:02:00.709Z,9.27
2022-10-13T13:04:43.897Z,8.45
2022-10-13T13:07:32.885Z,7.75
2022-10-13T13:10:26.350Z,8.50
2022-10-13T13:12:57.169Z,8.60
2022-10-13T13:15:38.866Z,8.18
2022-10-13T13:18:35.970Z,7.38
2022-10-13T13:21:07.078Z,8.00
2022-10-13T13:23:59.479Z,7.32
2022-10-13T13:26:30.158Z,7.40
2022-10-13T13:29:01.061Z,8.45
2022-10-13T13:31:30.384Z,8.75
2022-10-13T13:33:59.075Z,8.68
2022-10-13T13:36:28.354Z,8.32
2022-10-13T13:38:57.249Z,7.38
2022-10-13T13:41:27.925Z,7.53
2022-10-13T13:44:01.503Z,7.53
2022-10-13T13:46:32.932Z,7.40
2022-10-13T13:49:02.453Z,8.02
2022-10-13T13:51:32.939Z,6.97
2022-10-13T13:54:01.675Z,6.25
2022-10-13T13:56:29.952Z,8.48
2022-10-13T13:58:59.592Z,8.15
2022-10-13T14:01:28.121Z,7.70
2022-10-13T14:03:56.657Z,8.07
2022-10-13T14:06:25.032Z,7.60
2022-10-13T14:08:53.205Z,7.35
2022-10-13T14:11:21.517Z,7.18
2022-10-13T14:13:49.768Z,7.05
2022-10-13T14:16:19.489Z,6.75
2022-10-13T14:18:47.789Z,6.72
2022-10-13T14:21:16.104Z,6.65
2022-10-13T14:23:47.118Z,7.13
2022-10-13T14:26:15.583Z,6.80
2022-10-13T14:28:45.154Z,7.43
2022-10-13T14:31:13.670Z,7.45
2022-10-13T14:33:43.733Z,6.32
2022-10-13T14:36:12.282Z,7.05
2022-10-13T14:38:40.463Z,6.28
2022-10-13T14:41:08.946Z,6.60
2022-10-13T14:43:37.220Z,7.35
2022-10-13T14:46:07.169Z,6.85
2022-10-13T14:48:37.174Z,7.13
2022-10-13T14:51:08.265Z,6.65
2022-10-13T14:53:38.562Z,6.35
2022-10-13T14:56:17.517Z,7.18
2022-10-13T14:58:46.830Z,6.82
2022-10-13T15:01:15.210Z,6.95
2022-10-13T15:03:44.066Z,6.95
2022-10-13T15:06:16.416Z,6.70
2022-10-13T15:08:46.033Z,6.22
2022-10-13T15:11:15.460Z,6.80
2022-10-13T15:13:43.878Z,5.90
2022-10-13T15:16:17.675Z,6.45
2022-10-13T15:18:46.113Z,6.53
2022-10-13T15:21:16.765Z,6.28
2022-10-13T15:23:45.647Z,6.43
2022-10-13T15:26:16.149Z,6.90
2022-10-13T15:28:46.472Z,6.82
2022-10-13T15:31:16.631Z,5.43
2022-10-13T15:33:46.679Z,6.47
2022-10-13T15:36:17.177Z,5.40
2022-10-13T15:38:45.623Z,6.75
2022-10-13T15:41:14.703Z,7.10
2022-10-13T15:43:44.511Z,6.07
2022-10-13T15:46:21.121Z,5.55
2022-10-13T15:48:49.859Z,7.32
2022-10-13T15:51:21.779Z,7.30
2022-10-13T15:53:50.598Z,6.72
2022-10-13T15:56:19.102Z,6.22
2022-10-13T15:58:48.674Z,6.40
2022-10-13T16:01:18.091Z,5.65
2022-10-13T16:03:46.354Z,6.88
2022-10-13T16:06:15.036Z,6.75
2022-10-13T16:08:45.113Z,6.72
2022-10-13T16:11:16.163Z,6.45
2022-10-13T16:13:47.467Z,6.43
2022-10-13T16:16:16.611Z,6.75
2022-10-13T16:18:45.255Z,6.70
2022-10-13T16:21:18.567Z,8.20
2022-10-13T16:23:49.842Z,9.85
2022-10-13T16:26:19.438Z,10.73
2022-10-13T16:28:47.874Z,13.15
2022-10-13T16:31:18.274Z,11.57
2022-10-13T16:33:47.491Z,9.27
2022-10-13T16:36:17.560Z,8.73
2022-10-13T16:38:47.407Z,6.97
2022-10-13T16:41:18.883Z,8.35
2022-10-13T16:43:48.257Z,8.07
2022-10-13T16:46:18.118Z,7.40
2022-10-13T16:48:48.214Z,7.88
2022-10-13T16:51:18.978Z,8.73
2022-10-13T16:53:51.116Z,8.95
2022-10-13T16:56:24.471Z,6.75
2022-10-13T16:58:54.990Z,7.90
2022-10-13T17:01:23.838Z,7.70
2022-10-13T17:03:53.036Z,7.18
2022-10-13T17:06:22.768Z,7.43
2022-10-13T17:08:51.576Z,8.23
2022-10-13T17:11:25.005Z,7.65
2022-10-13T17:13:53.803Z,7.57
2022-10-13T17:16:23.363Z,6.90
2022-10-13T17:18:51.701Z,7.05
2022-10-13T17:21:21.486Z,7.00
2022-10-13T17:23:50.957Z,7.95
2022-10-13T17:26:21.636Z,8.07
2022-10-13T17:28:50.165Z,7.40
2022-10-13T17:31:23.237Z,7.50
2022-10-13T17:33:54.347Z,7.68
2022-10-13T17:36:25.279Z,7.82
2022-10-13T17:38:55.860Z,6.75
2022-10-13T17:41:26.669Z,7.38
2022-10-13T17:43:54.870Z,6.88
2022-10-13T17:46:36.130Z,7.13
2022-10-13T17:49:06.223Z,7.60
2022-10-13T17:51:34.507Z,7.28
2022-10-13T17:54:04.358Z,7.43
2022-10-13T17:56:36.389Z,7.22
2022-10-13T17:59:05.540Z,6.68
2022-10-13T18:01:36.586Z,6.88
2022-10-13T18:04:09.319Z,7.90
2022-10-13T18:06:41.934Z,8.73
2022-10-13T18:09:17.147Z,7.75
2022-10-13T18:11:51.355Z,8.07
2022-10-13T18:14:21.010Z,7.13
2022-10-13T18:16:50.157Z,7.93
2022-10-13T18:19:19.108Z,8.77
2022-10-13T18:21:50.016Z,7.43
2022-10-13T18:24:18.942Z,8.18
2022-10-13T18:26:50.450Z,8.50
2022-10-13T18:29:19.707Z,7.38
2022-10-13T18:31:48.355Z,8.10
2022-10-13T18:34:18.629Z,7.90
2022-10-13T18:36:48.633Z,9.32
2022-10-13T18:39:19.037Z,8.70
2022-10-13T18:41:50.272Z,8.93
2022-10-13T18:44:19.178Z,8.45
2022-10-13T18:46:51.008Z,8.25
2022-10-13T18:49:23.215Z,8.00
2022-10-13T18:51:52.545Z,9.18
2022-10-13T18:54:23.260Z,7.57
2022-10-13T18:56:54.069Z,7.55
2022-10-13T18:59:22.485Z,7.57
2022-10-13T19:01:50.872Z,7.38
2022-10-13T19:04:19.988Z,7.63
2022-10-13T19:06:49.040Z,7.25
2022-10-13T19:09:19.214Z,9.32
2022-10-13T19:11:47.789Z,7.55
2022-10-13T19:14:17.564Z,7.68
2022-10-13T19:16:46.259Z,8.15
2022-10-13T19:19:15.969Z,8.98
2022-10-13T19:21:45.022Z,7.35
2022-10-13T19:24:13.489Z,8.20
2022-10-13T19:26:41.892Z,8.52
2022-10-13T19:29:12.089Z,8.20
2022-10-13T19:31:44.026Z,8.43
2022-10-13T19:34:16.058Z,7.95
2022-10-13T19:36:46.723Z,8.90
2022-10-13T19:39:16.807Z,8.52
2022-10-13T19:41:46.094Z,8.30
2022-10-13T19:44:16.291Z,10.70
2022-10-13T19:46:47.752Z,8.40
2022-10-13T19:49:18.386Z,10.07
2022-10-13T19:51:47.588Z,8.90
2022-10-13T19:54:18.849Z,8.38
2022-10-13T19:56:48.659Z,8.60
2022-10-13T19:59:17.871Z,10.77
2022-10-13T20:01:48.289Z,11.02
2022-10-13T20:04:21.065Z,8.60
2022-10-13T20:06:50.389Z,9.55
2022-10-13T20:09:19.716Z,7.88
2022-10-13T20:11:50.628Z,8.80
2022-10-13T20:14:19.079Z,9.73
2022-10-13T20:16:49.336Z,9.90
2022-10-13T20:19:19.638Z,10.00
2022-10-13T20:21:51.870Z,9.93
2022-10-13T20:24:21.128Z,8.95
2022-10-13T20:26:49.447Z,9.68
2022-10-13T20:29:18.814Z,12.15
2022-10-13T20:31:48.936Z,11.38
2022-10-13T20:34:17.448Z,10.13
2022-10-13T20:36:45.740Z,10.10
2022-10-13T20:39:14.191Z,10.52
2022-10-13T20:41:42.796Z,11.35
2022-10-13T20:44:11.672Z,11.45
2022-10-13T20:46:40.245Z,11.35
2022-10-13T20:49:11.894Z,10.23
2022-10-13T20:51:41.228Z,11.05
2022-10-13T20:54:10.046Z,11.55
2022-10-13T20:56:38.688Z,13.65
2022-10-13T20:59:09.632Z,11.63
2022-10-13T21:01:38.448Z,9.95
2022-10-13T21:04:10.503Z,9.77
2022-10-13T21:06:38.815Z,9.90
2022-10-13T21:09:07.883Z,10.77
2022-10-13T21:11:37.006Z,8.40
2022-10-13T21:14:07.262Z,9.50
2022-10-13T21:16:36.635Z,8.50
2022-10-13T21:19:06.040Z,10.68
2022-10-13T21:21:36.605Z,10.52
2022-10-13T21:24:07.342Z,9.70
2022-10-13T21:26:36.455Z,7.78
2022-10-13T21:29:05.389Z,9.32
2022-10-13T21:31:33.777Z,10.75
2022-10-13T21:34:02.054Z,8.48
2022-10-13T21:36:32.487Z,8.93
2022-10-13T21:39:03.939Z,9.13
2022-10-13T21:41:32.949Z,8.68
2022-10-13T21:44:01.543Z,8.05
2022-10-13T21:46:32.001Z,9.35
2022-10-13T21:49:03.110Z,8.48
2022-10-13T21:51:33.882Z,8.73
2022-10-13T21:54:06.867Z,8.63
2022-10-13T21:56:36.199Z,7.70
2022-10-13T21:59:04.745Z,9.65
2022-10-13T22:01:33.213Z,8.25
2022-10-13T22:04:02.943Z,9.18
2022-10-13T22:06:32.980Z,9.05
2022-10-13T22:09:05.292Z,8.43
2022-10-13T22:11:36.872Z,9.52
2022-10-13T22:14:06.087Z,8.85
2022-10-13T22:16:38.341Z,8.80
2022-10-13T22:19:07.342Z,7.63
2022-10-13T22:21:37.674Z,7.70
2022-10-13T22:24:09.838Z,8.05
2022-10-13T22:26:41.352Z,7.97
2022-10-13T22:29:11.992Z,7.68
2022-10-13T22:31:40.660Z,7.25
2022-10-13T22:34:08.985Z,8.00
2022-10-13T22:36:41.063Z,7.22
2022-10-13T22:39:14.367Z,7.43
2022-10-13T22:41:43.270Z,6.88
2022-10-13T22:44:11.907Z,7.25
2022-10-13T22:46:41.603Z,7.70
2022-10-13T22:49:10.683Z,6.80
2022-10-13T22:51:39.530Z,6.85
2022-10-13T22:54:08.363Z,8.35
2022-10-13T22:56:39.098Z,6.50
2022-10-13T22:59:08.970Z,6.93
2022-10-13T23:01:37.497Z,6.75
2022-10-13T23:04:06.087Z,6.85
2022-10-13T23:06:36.044Z,7.20
2022-10-13T23:09:07.177Z,7.93
2022-10-13T23:11:36.243Z,6.72
2022-10-13T23:14:06.325Z,8.80
2022-10-13T23:16:35.571Z,6.28
2022-10-13T23:19:04.262Z,6.22
2022-10-13T23:21:32.903Z,6.50
2022-10-13T23:24:03.025Z,7.22
2022-10-13T23:26:33.313Z,6.32
2022-10-13T23:29:02.510Z,6.45
2022-10-13T23:31:32.909Z,6.35
2022-10-13T23:34:01.497Z,6.60
2022-10-13T23:36:32.538Z,5.50
2022-10-13T23:39:02.759Z,5.53
2022-10-13T23:41:31.853Z,6.57
2022-10-13T23:44:00.399Z,5.88
2022-10-13T23:46:29.230Z,6.43
2022-10-13T23:48:59.522Z,6.05
2022-10-13T23:51:28.570Z,6.30
2022-10-13T23:53:57.552Z,7.15
2022-10-13T23:56:26.325Z,5.43
2022-10-13T23:58:55.128Z,6.15
